createdAt,value
2022-09-16T00:00:46.277Z,70.46
2022-09-16T00:03:13.572Z,70.68
2022-09-16T00:05:42.384Z,70.25
2022-09-16T00:08:09.454Z,69.99
2022-09-16T00:10:36.091Z,70.21
2022-09-16T00:13:03.283Z,70.32
2022-09-16T00:15:29.783Z,70.49
2022-09-16T00:17:56.338Z,70.44
2022-09-16T00:20:22.956Z,70.07
2022-09-16T00:22:49.506Z,69.77
2022-09-16T00:25:16.135Z,69.90
2022-09-16T00:27:42.947Z,69.68
2022-09-16T00:30:09.835Z,69.99
2022-09-16T00:32:36.348Z,69.51
2022-09-16T00:35:02.905Z,69.79
2022-09-16T00:37:32.668Z,69.64
2022-09-16T00:39:59.270Z,69.43
2022-09-16T00:42:25.971Z,69.65
2022-09-16T00:45:02.341Z,69.57
2022-09-16T00:47:47.069Z,69.39
2022-09-16T00:50:38.005Z,69.36
2022-09-16T00:53:17.572Z,69.10
2022-09-16T00:55:45.246Z,69.84
2022-09-16T00:58:23.523Z,69.65
2022-09-16T01:00:50.947Z,69.19
2022-09-16T01:03:18.468Z,69.54
2022-09-16T01:05:45.969Z,69.22
2022-09-16T01:08:12.897Z,69.01
2022-09-16T01:10:42.281Z,69.25
2022-09-16T01:13:12.828Z,69.18
2022-09-16T01:16:05.669Z,69.16
2022-09-16T01:18:54.023Z,68.55
2022-09-16T01:21:31.430Z,69.10
2022-09-16T01:23:58.187Z,69.02
2022-09-16T01:26:58.793Z,69.48
2022-09-16T01:30:03.712Z,69.16
2022-09-16T01:33:01.505Z,68.76
2022-09-16T01:35:58.011Z,68.59
2022-09-16T01:38:29.848Z,68.59
2022-09-16T01:40:56.380Z,68.28
2022-09-16T01:43:28.827Z,68.05
2022-09-16T01:46:31.365Z,68.12
2022-09-16T01:49:07.233Z,67.62
2022-09-16T01:51:46.490Z,67.24
2022-09-16T01:54:24.348Z,67.22
2022-09-16T01:57:07.867Z,67.70
2022-09-16T01:59:43.612Z,67.51
2022-09-16T02:02:39.358Z,67.26
2022-09-16T02:05:11.757Z,66.77
2022-09-16T02:07:42.986Z,66.76
2022-09-16T02:10:16.958Z,66.63
2022-09-16T02:12:45.990Z,66.85
2022-09-16T02:15:22.047Z,66.93
2022-09-16T02:17:56.616Z,66.34
2022-09-16T02:20:27.801Z,66.48
2022-09-16T02:23:01.856Z,65.96
2022-09-16T02:25:30.815Z,66.50
2022-09-16T02:28:00.907Z,66.28
2022-09-16T02:30:27.549Z,66.72
2022-09-16T02:33:00.870Z,66.55
2022-09-16T02:35:29.496Z,67.22
2022-09-16T02:38:02.338Z,66.89
2022-09-16T02:40:42.072Z,67.32
2022-09-16T02:43:09.275Z,66.84
2022-09-16T02:45:56.867Z,66.98
2022-09-16T02:48:46.323Z,67.21
2022-09-16T02:51:16.226Z,67.31
2022-09-16T02:54:06.024Z,67.23
2022-09-16T02:56:36.667Z,67.47
2022-09-16T02:59:05.863Z,67.24
2022-09-16T03:01:36.950Z,67.00
2022-09-16T03:04:04.187Z,67.00
2022-09-16T03:06:36.029Z,66.72
2022-09-16T03:09:06.056Z,66.67
2022-09-16T03:11:54.483Z,66.78
2022-09-16T03:14:39.840Z,67.05
2022-09-16T03:17:28.224Z,67.24
2022-09-16T03:20:33.405Z,66.08
2022-09-16T03:23:21.460Z,66.32
2022-09-16T03:26:07.436Z,66.41
2022-09-16T03:28:45.671Z,66.48
2022-09-16T03:31:15.629Z,66.42
2022-09-16T03:33:47.230Z,66.72
2022-09-16T03:36:19.420Z,66.56
2022-09-16T03:38:46.985Z,66.49
2022-09-16T03:41:15.021Z,66.60
2022-09-16T03:43:51.857Z,66.67
2022-09-16T03:46:18.391Z,66.21
2022-09-16T03:48:44.915Z,66.62
2022-09-16T03:51:12.690Z,66.68
2022-09-16T03:53:39.214Z,66.56
2022-09-16T03:56:06.072Z,66.69
2022-09-16T03:58:32.709Z,67.07
2022-09-16T04:00:59.318Z,66.55
2022-09-16T04:03:28.878Z,66.76
2022-09-16T04:05:58.203Z,66.73
2022-09-16T04:08:24.738Z,67.11
2022-09-16T04:10:59.842Z,66.73
2022-09-16T04:13:28.858Z,67.00
2022-09-16T04:15:55.410Z,66.92
2022-09-16T04:18:22.120Z,67.59
2022-09-16T04:20:48.724Z,67.30
2022-09-16T04:23:15.257Z,67.50
2022-09-16T04:25:42.030Z,68.07
2022-09-16T04:28:08.600Z,67.75
2022-09-16T04:30:36.609Z,67.96
2022-09-16T04:33:03.264Z,67.81
2022-09-16T04:35:29.815Z,67.52
2022-09-16T04:37:56.380Z,67.14
2022-09-16T04:40:22.979Z,66.76
2022-09-16T04:42:50.591Z,66.99
2022-09-16T04:45:17.675Z,67.27
2022-09-16T04:47:44.356Z,67.30
2022-09-16T04:50:11.338Z,66.92
2022-09-16T04:52:37.914Z,66.99
2022-09-16T04:55:04.792Z,67.21
2022-09-16T04:57:32.601Z,66.78
2022-09-16T04:59:59.585Z,68.85
2022-09-16T05:02:26.295Z,67.88
2022-09-16T05:04:52.839Z,67.48
2022-09-16T05:07:19.433Z,65.75
2022-09-16T05:09:46.246Z,64.53
2022-09-16T05:12:12.841Z,62.56
2022-09-16T05:14:39.797Z,61.39
2022-09-16T05:17:07.402Z,62.06
2022-09-16T05:19:33.965Z,62.45
2022-09-16T05:22:00.770Z,62.55
2022-09-16T05:24:27.307Z,61.23
2022-09-16T05:26:53.884Z,61.21
2022-09-16T05:29:20.662Z,62.13
2022-09-16T05:31:50.711Z,62.81
2022-09-16T05:34:19.829Z,63.96
2022-09-16T05:36:48.274Z,63.62
2022-09-16T05:39:25.827Z,64.10
2022-09-16T05:41:55.609Z,63.83
2022-09-16T05:44:22.788Z,64.69
2022-09-16T05:46:49.400Z,63.71
2022-09-16T05:49:20.681Z,64.90
2022-09-16T05:51:48.498Z,65.65
2022-09-16T05:54:15.699Z,64.06
2022-09-16T05:56:42.547Z,63.41
2022-09-16T05:59:12.064Z,63.76
2022-09-16T06:01:38.860Z,62.96
2022-09-16T06:04:07.511Z,63.07
2022-09-16T06:06:39.102Z,61.43
2022-09-16T06:09:20.252Z,60.72
2022-09-16T06:11:49.343Z,60.88
2022-09-16T06:14:27.108Z,60.66
2022-09-16T06:16:53.685Z,62.01
2022-09-16T06:19:24.885Z,61.97
2022-09-16T06:21:52.427Z,61.06
2022-09-16T06:24:20.661Z,60.78
2022-09-16T06:26:49.316Z,62.10
2022-09-16T06:29:17.559Z,61.32
2022-09-16T06:31:44.164Z,60.47
2022-09-16T06:34:14.870Z,60.62
2022-09-16T06:36:44.734Z,61.18
2022-09-16T06:39:13.575Z,61.96
2022-09-16T06:41:40.573Z,61.60
2022-09-16T06:44:07.173Z,61.18
2022-09-16T06:46:33.770Z,61.49
2022-09-16T06:49:05.093Z,59.86
2022-09-16T06:51:32.778Z,58.78
2022-09-16T06:54:01.378Z,58.22
2022-09-16T06:56:27.922Z,58.96
2022-09-16T06:58:55.903Z,59.55
2022-09-16T07:01:29.236Z,57.84
2022-09-16T07:03:58.276Z,57.75
2022-09-16T07:06:45.239Z,58.71
2022-09-16T07:09:14.595Z,59.58
2022-09-16T07:11:41.162Z,58.81
2022-09-16T07:14:09.393Z,58.58
2022-09-16T07:16:36.007Z,56.76
2022-09-16T07:19:04.525Z,56.23
2022-09-16T07:21:31.345Z,57.73
2022-09-16T07:23:59.890Z,56.77
2022-09-16T07:26:32.513Z,56.21
2022-09-16T07:29:00.866Z,57.40
2022-09-16T07:31:29.659Z,57.71
2022-09-16T07:34:03.487Z,57.47
2022-09-16T07:36:35.974Z,58.27
2022-09-16T07:39:03.418Z,58.97
2022-09-16T07:41:32.666Z,57.82
2022-09-16T07:44:00.657Z,57.88
2022-09-16T07:46:29.549Z,58.63
2022-09-16T07:48:56.619Z,58.59
2022-09-16T07:51:24.961Z,58.80
2022-09-16T07:54:05.254Z,58.86
2022-09-16T07:56:34.595Z,59.11
2022-09-16T07:59:03.258Z,60.01
2022-09-16T08:01:31.411Z,58.29
2022-09-16T08:03:59.705Z,58.42
2022-09-16T08:06:29.025Z,59.14
2022-09-16T08:09:02.401Z,56.60
2022-09-16T08:11:36.546Z,56.88
2022-09-16T08:14:03.130Z,57.64
2022-09-16T08:16:29.815Z,58.84
2022-09-16T08:18:58.727Z,56.08
2022-09-16T08:21:28.177Z,56.53
2022-09-16T08:23:55.798Z,55.33
2022-09-16T08:26:22.611Z,55.80
2022-09-16T08:29:07.887Z,53.81
2022-09-16T08:31:36.484Z,53.10
2022-09-16T08:34:03.455Z,52.43
2022-09-16T08:36:30.033Z,53.01
2022-09-16T08:38:56.889Z,53.27
2022-09-16T08:41:46.917Z,54.32
2022-09-16T08:44:41.098Z,52.47
2022-09-16T08:47:35.168Z,51.19
2022-09-16T08:50:06.271Z,50.87
2022-09-16T08:52:37.132Z,48.72
2022-09-16T08:55:16.767Z,49.61
2022-09-16T08:57:54.020Z,49.57
2022-09-16T09:00:20.820Z,49.16
2022-09-16T09:03:16.479Z,48.50
2022-09-16T09:05:50.278Z,45.35
2022-09-16T09:08:22.746Z,47.01
2022-09-16T09:10:57.359Z,47.61
2022-09-16T09:13:38.421Z,47.37
2022-09-16T09:16:33.210Z,46.78
2022-09-16T09:19:21.665Z,47.71
2022-09-16T09:22:00.709Z,46.50
2022-09-16T09:24:59.922Z,47.42
2022-09-16T09:27:32.729Z,46.34
2022-09-16T09:30:03.786Z,46.22
2022-09-16T09:32:46.341Z,44.75
2022-09-16T09:35:39.456Z,43.53
2022-09-16T09:38:27.744Z,44.03
2022-09-16T09:40:59.175Z,44.82
2022-09-16T09:43:35.830Z,45.38
2022-09-16T09:46:12.426Z,43.71
2022-09-16T09:48:44.451Z,43.16
2022-09-16T09:51:23.013Z,45.00
2022-09-16T09:53:55.001Z,43.85
2022-09-16T09:56:26.527Z,44.15
2022-09-16T09:59:30.432Z,44.79
2022-09-16T10:01:58.583Z,45.44
2022-09-16T10:04:25.402Z,46.63
2022-09-16T10:06:56.215Z,47.03
2022-09-16T10:09:23.371Z,45.72
2022-09-16T10:11:56.082Z,46.97
2022-09-16T10:14:26.633Z,45.99
2022-09-16T10:16:55.037Z,46.47
2022-09-16T10:19:27.192Z,46.14
2022-09-16T10:21:57.135Z,45.70
2022-09-16T10:24:35.660Z,44.39
2022-09-16T10:27:17.737Z,43.77
2022-09-16T10:29:44.304Z,44.51
2022-09-16T10:32:18.081Z,44.61
2022-09-16T10:34:46.608Z,44.12
2022-09-16T10:37:13.654Z,43.13
2022-09-16T10:40:16.138Z,44.32
2022-09-16T10:42:46.700Z,45.77
2022-09-16T10:45:20.315Z,44.99
2022-09-16T10:47:53.723Z,45.87
2022-09-16T10:50:20.680Z,45.03
2022-09-16T10:52:48.747Z,46.17
2022-09-16T10:55:25.459Z,45.72
2022-09-16T10:57:53.486Z,46.43
2022-09-16T11:00:24.034Z,46.06
2022-09-16T11:03:09.158Z,46.27
2022-09-16T11:06:00.140Z,46.59
2022-09-16T11:09:03.809Z,45.82
2022-09-16T11:11:45.297Z,45.90
2022-09-16T11:14:18.050Z,44.71
2022-09-16T11:16:50.284Z,45.72
2022-09-16T11:19:32.423Z,46.05
2022-09-16T11:22:14.272Z,46.71
2022-09-16T11:24:56.065Z,45.13
2022-09-16T11:27:28.680Z,44.73
2022-09-16T11:30:16.232Z,45.69
2022-09-16T11:33:03.207Z,44.78
2022-09-16T11:35:54.408Z,44.06
2022-09-16T11:38:29.700Z,45.22
2022-09-16T11:41:33.890Z,45.28
2022-09-16T11:44:31.386Z,44.36
2022-09-16T11:47:01.018Z,44.80
2022-09-16T11:49:46.890Z,44.99
2022-09-16T11:52:28.142Z,44.85
2022-09-16T11:55:28.404Z,45.59
2022-09-16T11:58:00.281Z,45.48
2022-09-16T12:00:27.234Z,44.76
2022-09-16T12:03:13.044Z,45.45
2022-09-16T12:05:53.604Z,44.47
2022-09-16T12:08:37.283Z,45.49
2022-09-16T12:11:22.605Z,45.25
2022-09-16T12:14:05.623Z,45.62
2022-09-16T12:16:51.772Z,46.69
2022-09-16T12:19:26.952Z,45.49
2022-09-16T12:22:08.257Z,45.13
2022-09-16T12:24:40.923Z,45.55
2022-09-16T12:27:24.403Z,46.49
2022-09-16T12:30:00.922Z,45.84
2022-09-16T12:32:30.374Z,45.40
2022-09-16T12:35:03.773Z,44.94
2022-09-16T12:37:39.053Z,43.40
2022-09-16T12:40:07.066Z,42.72
2022-09-16T12:42:58.415Z,42.89
2022-09-16T12:45:37.494Z,44.82
2022-09-16T12:48:40.304Z,45.73
2022-09-16T12:51:32.259Z,46.96
2022-09-16T12:54:07.811Z,47.62
2022-09-16T12:56:50.927Z,47.06
2022-09-16T12:59:54.463Z,46.99
2022-09-16T13:02:26.646Z,48.09
2022-09-16T13:04:57.561Z,47.99
2022-09-16T13:07:35.205Z,48.12
2022-09-16T13:10:40.460Z,49.42
2022-09-16T13:13:25.050Z,50.88
2022-09-16T13:16:00.390Z,56.62
2022-09-16T13:18:45.562Z,59.29
2022-09-16T13:21:37.632Z,61.26
2022-09-16T13:24:28.569Z,62.21
2022-09-16T13:26:55.571Z,61.96
2022-09-16T13:29:32.112Z,61.03
2022-09-16T13:31:58.698Z,60.79
2022-09-16T13:34:25.384Z,60.49
2022-09-16T13:36:52.169Z,60.94
2022-09-16T13:39:34.150Z,60.13
2022-09-16T13:42:17.705Z,60.66
2022-09-16T13:44:44.298Z,61.20
2022-09-16T13:47:10.890Z,61.74
2022-09-16T13:50:00.749Z,62.17
2022-09-16T13:52:30.332Z,62.43
2022-09-16T13:55:10.910Z,62.74
2022-09-16T13:57:59.796Z,62.90
2022-09-16T14:00:32.309Z,62.07
2022-09-16T14:03:21.125Z,60.29
2022-09-16T14:06:04.468Z,59.75
2022-09-16T14:08:43.113Z,60.08
2022-09-16T14:11:21.941Z,60.08
2022-09-16T14:13:52.098Z,59.87
2022-09-16T14:16:30.803Z,60.13
2022-09-16T14:19:17.807Z,59.75
2022-09-16T14:21:44.377Z,60.13
2022-09-16T14:24:19.258Z,60.36
2022-09-16T14:26:56.930Z,59.27
2022-09-16T14:29:25.116Z,59.57
2022-09-16T14:31:57.106Z,59.45
2022-09-16T14:34:32.594Z,59.71
2022-09-16T14:36:59.561Z,60.42
2022-09-16T14:39:28.166Z,59.96
2022-09-16T14:41:59.271Z,59.43
2022-09-16T14:44:34.492Z,59.64
2022-09-16T14:47:07.818Z,58.12
2022-09-16T14:49:37.938Z,57.19
2022-09-16T14:52:04.975Z,55.60
2022-09-16T14:54:32.251Z,54.35
2022-09-16T14:57:05.966Z,55.29
2022-09-16T14:59:37.058Z,55.35
2022-09-16T15:02:24.948Z,55.29
2022-09-16T15:04:57.884Z,53.58
2022-09-16T15:07:34.132Z,53.65
2022-09-16T15:10:06.807Z,55.03
2022-09-16T15:12:37.627Z,52.51
2022-09-16T15:15:26.358Z,56.10
2022-09-16T15:18:22.149Z,61.50
2022-09-16T15:21:03.206Z,63.68
2022-09-16T15:23:30.613Z,65.15
2022-09-16T15:26:04.640Z,66.64
2022-09-16T15:28:31.204Z,67.16
2022-09-16T15:30:59.460Z,68.73
2022-09-16T15:33:37.651Z,68.74
2022-09-16T15:36:04.712Z,68.89
2022-09-16T15:38:31.391Z,69.10
2022-09-16T15:41:04.017Z,68.93
2022-09-16T15:43:40.008Z,69.25
2022-09-16T15:46:16.333Z,68.60
2022-09-16T15:48:50.003Z,67.89
2022-09-16T15:51:31.017Z,67.94
2022-09-16T15:54:48.307Z,67.66
2022-09-16T15:57:23.867Z,68.35
2022-09-16T15:59:53.173Z,68.35
2022-09-16T16:02:30.181Z,67.95
2022-09-16T16:05:15.134Z,68.03
2022-09-16T16:07:49.234Z,68.26
2022-09-16T16:10:27.667Z,68.30
2022-09-16T16:12:54.766Z,67.67
2022-09-16T16:15:26.876Z,67.87
2022-09-16T16:17:57.872Z,67.57
2022-09-16T16:20:24.659Z,67.54
2022-09-16T16:22:51.873Z,67.22
2022-09-16T16:25:19.023Z,68.00
2022-09-16T16:27:45.751Z,67.58
2022-09-16T16:30:12.523Z,68.06
2022-09-16T16:32:40.029Z,67.34
2022-09-16T16:35:06.942Z,67.85
2022-09-16T16:37:46.057Z,67.84
2022-09-16T16:40:14.222Z,67.31
2022-09-16T16:42:43.128Z,68.00
2022-09-16T16:45:11.106Z,67.69
2022-09-16T16:47:37.651Z,68.11
2022-09-16T16:50:04.673Z,67.90
2022-09-16T16:52:31.239Z,68.13
2022-09-16T16:54:57.773Z,68.90
2022-09-16T16:57:24.306Z,68.79
2022-09-16T16:59:52.057Z,68.47
2022-09-16T17:02:18.624Z,69.00
2022-09-16T17:04:45.219Z,68.89
2022-09-16T17:07:28.109Z,69.11
2022-09-16T17:09:57.300Z,68.85
2022-09-16T17:12:24.123Z,68.98
2022-09-16T17:14:50.683Z,70.06
2022-09-16T17:17:17.261Z,69.02
2022-09-16T17:19:43.820Z,70.00
2022-09-16T17:22:11.424Z,70.00
2022-09-16T17:24:37.977Z,70.45
2022-09-16T17:27:04.712Z,70.17
2022-09-16T17:29:31.332Z,70.45
2022-09-16T17:32:00.721Z,69.73
2022-09-16T17:34:27.605Z,69.87
2022-09-16T17:36:54.665Z,70.04
2022-09-16T17:39:22.205Z,69.84
2022-09-16T17:41:49.922Z,69.81
2022-09-16T17:44:18.016Z,69.18
2022-09-16T17:46:45.714Z,68.41
2022-09-16T17:49:21.798Z,68.12
2022-09-16T17:51:49.373Z,68.94
2022-09-16T17:54:16.709Z,67.77
2022-09-16T17:56:44.143Z,68.03
2022-09-16T17:59:12.720Z,67.49
2022-09-16T18:01:39.634Z,68.06
2022-09-16T18:04:06.908Z,68.17
2022-09-16T18:06:39.975Z,68.92
2022-09-16T18:09:07.509Z,68.56
2022-09-16T18:11:35.277Z,68.26
2022-09-16T18:14:04.490Z,68.37
2022-09-16T18:16:31.764Z,68.67
2022-09-16T18:19:00.588Z,69.25
2022-09-16T18:21:28.179Z,69.57
2022-09-16T18:23:57.298Z,69.19
2022-09-16T18:26:24.444Z,69.79
2022-09-16T18:29:09.091Z,69.66
2022-09-16T18:31:36.171Z,69.15
2022-09-16T18:34:02.770Z,69.66
2022-09-16T18:36:30.318Z,69.05
2022-09-16T18:38:58.491Z,69.65
2022-09-16T18:41:27.402Z,68.69
2022-09-16T18:44:04.940Z,68.85
2022-09-16T18:46:33.769Z,68.41
2022-09-16T18:49:00.828Z,68.53
2022-09-16T18:51:33.492Z,69.21
2022-09-16T18:54:03.029Z,68.97
2022-09-16T18:56:35.063Z,68.83
2022-09-16T18:59:20.961Z,69.13
2022-09-16T19:01:49.105Z,69.38
2022-09-16T19:04:18.968Z,70.36
2022-09-16T19:06:50.806Z,70.74
2022-09-16T19:09:19.305Z,70.39
2022-09-16T19:11:45.917Z,71.09
2022-09-16T19:14:14.242Z,71.18
2022-09-16T19:16:42.947Z,71.12
2022-09-16T19:19:12.008Z,70.79
2022-09-16T19:21:38.770Z,71.26
2022-09-16T19:24:07.701Z,70.87
2022-09-16T19:26:36.756Z,71.47
2022-09-16T19:29:07.555Z,71.42
2022-09-16T19:31:37.126Z,71.61
2022-09-16T19:34:03.821Z,72.15
2022-09-16T19:36:32.413Z,72.58
2022-09-16T19:38:59.751Z,72.61
2022-09-16T19:41:31.652Z,72.96
2022-09-16T19:44:01.430Z,72.87
2022-09-16T19:46:31.743Z,72.88
2022-09-16T19:48:58.700Z,73.64
2022-09-16T19:51:26.721Z,72.93
2022-09-16T19:53:55.051Z,73.33
2022-09-16T19:56:24.751Z,72.83
2022-09-16T19:58:52.424Z,72.96
2022-09-16T20:01:21.818Z,72.88
2022-09-16T20:03:51.280Z,72.92
2022-09-16T20:06:23.480Z,72.55
2022-09-16T20:08:58.765Z,72.92
2022-09-16T20:11:27.903Z,73.01
2022-09-16T20:13:56.981Z,72.78
2022-09-16T20:16:26.462Z,73.36
2022-09-16T20:18:53.823Z,73.15
2022-09-16T20:21:23.760Z,73.29
2022-09-16T20:23:52.082Z,73.92
2022-09-16T20:26:20.138Z,73.72
2022-09-16T20:28:50.818Z,74.03
2022-09-16T20:31:22.635Z,74.04
2022-09-16T20:33:49.771Z,73.77
2022-09-16T20:36:18.478Z,73.30
2022-09-16T20:38:45.946Z,74.06
2022-09-16T20:41:15.964Z,73.25
2022-09-16T20:43:43.150Z,73.33
2022-09-16T20:46:15.596Z,73.12
2022-09-16T20:48:43.072Z,73.28
2022-09-16T20:51:14.949Z,73.81
2022-09-16T20:53:44.923Z,73.06
2022-09-16T20:56:15.646Z,73.63
2022-09-16T20:58:42.990Z,74.00
2022-09-16T21:01:18.718Z,74.42
2022-09-16T21:03:45.715Z,74.00
2022-09-16T21:06:17.340Z,73.98
2022-09-16T21:08:44.271Z,73.91
2022-09-16T21:11:13.574Z,74.25
2022-09-16T21:13:43.988Z,74.18
2022-09-16T21:16:13.680Z,74.24
2022-09-16T21:18:40.536Z,74.51
2022-09-16T21:21:19.560Z,74.09
2022-09-16T21:23:47.219Z,74.14
2022-09-16T21:26:16.870Z,74.30
2022-09-16T21:28:44.801Z,74.47
2022-09-16T21:31:13.367Z,74.11
2022-09-16T21:33:42.054Z,74.09
2022-09-16T21:36:12.424Z,74.16
2022-09-16T21:38:40.316Z,74.24
2022-09-16T21:41:12.977Z,74.32
2022-09-16T21:43:55.620Z,74.33
2022-09-16T21:46:25.863Z,74.38
2022-09-16T21:48:55.665Z,74.34
2022-09-16T21:51:22.216Z,74.83
2022-09-16T21:53:48.721Z,74.74
2022-09-16T21:56:20.928Z,74.74
2022-09-16T21:58:49.000Z,74.68
2022-09-16T22:01:24.278Z,74.47
2022-09-16T22:03:59.101Z,74.64
2022-09-16T22:06:27.271Z,74.34
2022-09-16T22:08:55.410Z,74.71
2022-09-16T22:11:25.454Z,74.57
2022-09-16T22:13:54.090Z,74.79
2022-09-16T22:16:27.407Z,75.33
2022-09-16T22:19:00.634Z,75.03
2022-09-16T22:21:32.109Z,75.40
2022-09-16T22:24:00.974Z,75.54
2022-09-16T22:26:28.548Z,75.71
2022-09-16T22:28:55.298Z,75.96
2022-09-16T22:31:25.392Z,75.66
2022-09-16T22:33:53.922Z,76.21
2022-09-16T22:36:25.733Z,75.95
2022-09-16T22:38:57.091Z,76.05
2022-09-16T22:41:25.203Z,76.48
2022-09-16T22:43:53.012Z,76.19
2022-09-16T22:46:25.162Z,76.08
2022-09-16T22:48:52.528Z,75.76
2022-09-16T22:51:20.633Z,76.28
2022-09-16T22:53:48.335Z,76.53
2022-09-16T22:56:17.936Z,76.53
2022-09-16T22:58:45.662Z,76.71
2022-09-16T23:01:15.435Z,76.98
2022-09-16T23:03:43.283Z,76.86
2022-09-16T23:06:13.135Z,77.07
2022-09-16T23:08:42.175Z,77.27
2022-09-16T23:11:14.645Z,77.43
2022-09-16T23:13:45.335Z,76.95
2022-09-16T23:16:17.871Z,77.31
2022-09-16T23:18:46.083Z,77.47
2022-09-16T23:21:16.018Z,77.27
2022-09-16T23:23:45.021Z,77.16
2022-09-16T23:26:17.229Z,77.00
2022-09-16T23:28:44.547Z,77.04
2022-09-16T23:31:16.665Z,77.17
2022-09-16T23:33:44.207Z,76.81
2022-09-16T23:36:14.654Z,77.09
2022-09-16T23:38:42.619Z,77.02
2022-09-16T23:41:13.407Z,77.06
2022-09-16T23:43:43.934Z,76.79
2022-09-16T23:46:14.217Z,76.82
2022-09-16T23:48:42.567Z,76.96
2022-09-16T23:51:09.254Z,76.74
2022-09-16T23:53:37.288Z,76.93
2022-09-16T23:56:08.364Z,76.89
2022-09-16T23:58:35.383Z,77.02
